createdAt,value
2022-08-26T00:01:52.910Z,21.90
2022-08-26T00:04:21.645Z,21.80
2022-08-26T00:09:16.788Z,21.90
2022-08-26T00:11:45.573Z,21.60
2022-08-26T00:14:13.954Z,21.40
2022-08-26T00:16:47.525Z,21.50
2022-08-26T00:19:18.400Z,21.10
2022-08-26T00:21:48.683Z,21.50
2022-08-26T00:24:18.060Z,21.20
2022-08-26T00:26:45.470Z,20.90
2022-08-26T00:31:42.049Z,21.10
2022-08-26T00:34:11.237Z,21.10
2022-08-26T00:36:40.724Z,21.00
2022-08-26T00:39:08.681Z,21.30
2022-08-26T00:41:40.749Z,20.60
2022-08-26T00:44:10.445Z,20.70
2022-08-26T00:46:46.780Z,21.40
2022-08-26T00:49:36.092Z,21.00
2022-08-26T00:52:09.844Z,21.20
2022-08-26T00:54:47.029Z,20.90
2022-08-26T00:57:17.060Z,20.90
2022-08-26T00:59:57.567Z,20.60
2022-08-26T01:02:25.178Z,21.20
2022-08-26T01:04:57.705Z,21.30
2022-08-26T01:07:26.424Z,21.30
2022-08-26T01:09:55.086Z,21.10
2022-08-26T01:12:24.018Z,21.30
2022-08-26T01:14:52.551Z,20.50
2022-08-26T01:19:58.256Z,21.40
2022-08-26T01:22:55.400Z,20.90
2022-08-26T01:25:25.122Z,20.60
2022-08-26T01:27:53.322Z,20.80
2022-08-26T01:30:21.279Z,20.70
2022-08-26T01:32:50.601Z,21.00
2022-08-26T01:35:18.224Z,20.70
2022-08-26T01:37:48.107Z,21.00
2022-08-26T01:40:21.017Z,21.00
2022-08-26T01:42:49.247Z,20.70
2022-08-26T01:45:25.142Z,20.80
2022-08-26T01:47:56.653Z,21.00
2022-08-26T01:50:34.913Z,21.30
2022-08-26T01:53:06.118Z,21.00
2022-08-26T01:55:34.470Z,20.60
2022-08-26T01:58:06.500Z,20.90
2022-08-26T02:00:35.016Z,21.80
2022-08-26T02:03:17.118Z,20.70
2022-08-26T02:06:09.367Z,21.00
2022-08-26T02:08:45.471Z,20.70
2022-08-26T02:11:13.405Z,20.60
2022-08-26T02:13:44.237Z,20.70
2022-08-26T02:16:12.602Z,20.40
2022-08-26T02:18:41.787Z,20.60
2022-08-26T02:21:11.014Z,20.50
2022-08-26T02:23:39.063Z,20.50
2022-08-26T02:26:16.507Z,20.20
2022-08-26T02:28:51.398Z,20.10
2022-08-26T02:31:19.254Z,20.30
2022-08-26T02:36:22.684Z,20.00
2022-08-26T02:38:50.081Z,20.00
2022-08-26T02:41:19.031Z,20.30
2022-08-26T02:43:46.239Z,20.20
2022-08-26T02:46:13.282Z,20.20
2022-08-26T02:48:48.827Z,20.20
2022-08-26T02:51:15.798Z,20.30
2022-08-26T02:56:10.900Z,20.30
2022-08-26T02:58:37.812Z,20.30
2022-08-26T03:01:05.316Z,20.20
2022-08-26T03:03:32.995Z,20.30
2022-08-26T03:06:00.435Z,20.30
2022-08-26T03:08:27.456Z,20.30
2022-08-26T03:10:54.444Z,20.30
2022-08-26T03:15:49.183Z,20.30
2022-08-26T03:18:16.310Z,20.10
2022-08-26T03:20:43.198Z,20.20
2022-08-26T03:25:38.717Z,20.20
2022-08-26T03:28:05.657Z,20.00
2022-08-26T03:30:44.897Z,20.20
2022-08-26T03:33:14.042Z,20.30
2022-08-26T03:35:43.734Z,20.20
2022-08-26T03:38:11.551Z,20.20
2022-08-26T03:40:39.213Z,20.20
2022-08-26T03:43:09.861Z,20.20
2022-08-26T03:45:37.860Z,20.20
2022-08-26T03:48:05.524Z,20.20
2022-08-26T03:50:34.275Z,20.00
2022-08-26T03:53:03.837Z,19.90
2022-08-26T03:55:33.214Z,19.80
2022-08-26T03:58:00.826Z,19.70
2022-08-26T04:02:55.493Z,20.00
2022-08-26T04:05:23.775Z,19.90
2022-08-26T04:07:51.482Z,20.10
2022-08-26T04:10:22.206Z,20.10
2022-08-26T04:13:03.762Z,20.20
2022-08-26T04:15:30.900Z,20.00
2022-08-26T04:17:57.839Z,20.10
2022-08-26T04:20:25.492Z,20.00
2022-08-26T04:22:52.686Z,20.10
2022-08-26T04:25:20.609Z,19.90
2022-08-26T04:27:48.283Z,20.10
2022-08-26T04:30:16.695Z,19.90
2022-08-26T04:32:43.810Z,19.90
2022-08-26T04:35:10.771Z,20.10
2022-08-26T04:37:37.698Z,20.10
2022-08-26T04:40:06.301Z,20.20
2022-08-26T04:42:33.825Z,20.20
2022-08-26T04:45:01.668Z,20.30
2022-08-26T04:52:29.073Z,20.30
2022-08-26T04:54:57.971Z,20.30
2022-08-26T04:57:24.825Z,20.50
2022-08-26T05:02:20.346Z,20.40
2022-08-26T05:04:47.240Z,20.60
2022-08-26T05:07:14.110Z,20.70
2022-08-26T05:09:45.316Z,20.90
2022-08-26T05:12:12.234Z,20.80
2022-08-26T05:17:08.707Z,21.00
2022-08-26T05:19:37.154Z,20.90
2022-08-26T05:22:09.659Z,21.00
2022-08-26T05:27:11.474Z,21.30
2022-08-26T05:29:39.462Z,21.10
2022-08-26T05:32:07.596Z,21.50
2022-08-26T05:34:34.536Z,21.50
2022-08-26T05:41:58.239Z,21.90
2022-08-26T05:44:25.242Z,21.90
2022-08-26T05:49:20.386Z,22.00
2022-08-26T05:51:49.859Z,22.10
2022-08-26T05:54:22.147Z,22.30
2022-08-26T05:56:50.153Z,22.30
2022-08-26T05:59:17.023Z,22.50
2022-08-26T06:06:47.052Z,22.30
2022-08-26T06:09:14.203Z,22.50
2022-08-26T06:11:44.480Z,22.60
2022-08-26T06:14:11.770Z,22.70
2022-08-26T06:16:41.563Z,22.40
2022-08-26T06:19:10.606Z,22.70
2022-08-26T06:21:40.408Z,22.80
2022-08-26T06:24:29.035Z,22.70
2022-08-26T06:27:05.015Z,22.70
2022-08-26T06:29:34.617Z,22.70
2022-08-26T06:32:04.499Z,23.10
2022-08-26T06:37:02.780Z,23.30
2022-08-26T06:39:31.461Z,23.40
2022-08-26T06:42:00.246Z,23.70
2022-08-26T06:44:27.552Z,23.80
2022-08-26T06:49:25.861Z,24.30
2022-08-26T06:51:58.551Z,24.70
2022-08-26T06:54:26.732Z,24.70
2022-08-26T06:56:55.960Z,25.20
2022-08-26T06:59:23.300Z,25.60
2022-08-26T07:01:50.356Z,26.10
2022-08-26T07:04:20.223Z,26.10
2022-08-26T07:06:52.796Z,26.30
2022-08-26T07:09:23.986Z,26.30
2022-08-26T07:11:51.800Z,26.70
2022-08-26T07:14:21.357Z,26.80
2022-08-26T07:16:49.757Z,26.70
2022-08-26T07:19:30.339Z,27.10
2022-08-26T07:22:03.833Z,27.30
2022-08-26T07:24:35.918Z,27.60
2022-08-26T07:27:07.268Z,27.90
2022-08-26T07:29:37.234Z,28.00
2022-08-26T07:32:04.615Z,28.30
2022-08-26T07:34:33.388Z,28.60
2022-08-26T07:37:00.816Z,28.60
2022-08-26T07:39:27.961Z,28.70
2022-08-26T07:41:55.054Z,29.40
2022-08-26T07:44:22.603Z,29.50
2022-08-26T07:46:52.269Z,29.70
2022-08-26T07:49:24.496Z,29.70
2022-08-26T07:51:52.779Z,30.10
2022-08-26T07:54:20.067Z,30.00
2022-08-26T07:56:51.840Z,29.70
2022-08-26T07:59:19.210Z,30.00
2022-08-26T08:01:47.391Z,30.30
2022-08-26T08:04:15.971Z,30.10
2022-08-26T08:06:43.846Z,30.10
2022-08-26T08:09:14.897Z,30.10
2022-08-26T08:11:44.761Z,30.30
2022-08-26T08:14:12.720Z,30.30
2022-08-26T08:16:45.989Z,30.30
2022-08-26T08:19:14.785Z,30.70
2022-08-26T08:21:42.865Z,31.20
2022-08-26T08:24:11.214Z,31.50
2022-08-26T08:26:38.329Z,32.00
2022-08-26T08:29:08.435Z,32.00
2022-08-26T08:31:56.676Z,32.30
2022-08-26T08:34:24.649Z,32.50
2022-08-26T08:36:53.750Z,32.30
2022-08-26T08:39:22.332Z,32.50
2022-08-26T08:41:58.182Z,32.70
2022-08-26T08:47:03.938Z,33.50
2022-08-26T08:49:32.643Z,33.10
2022-08-26T08:52:13.853Z,33.10
2022-08-26T08:54:40.793Z,32.30
2022-08-26T08:57:20.694Z,32.80
2022-08-26T09:00:04.742Z,33.00
2022-08-26T09:03:07.071Z,33.50
2022-08-26T09:05:44.360Z,33.30
2022-08-26T09:08:28.462Z,33.60
2022-08-26T09:11:01.037Z,33.50
2022-08-26T09:13:29.304Z,33.60
2022-08-26T09:16:20.324Z,33.50
2022-08-26T09:19:04.896Z,33.60
2022-08-26T09:21:32.718Z,33.90
2022-08-26T09:24:00.305Z,34.30
2022-08-26T09:26:31.260Z,33.70
2022-08-26T09:29:03.798Z,34.20
2022-08-26T09:31:36.532Z,33.80
2022-08-26T09:34:12.898Z,34.40
2022-08-26T09:36:51.441Z,34.20
2022-08-26T09:39:25.068Z,34.50
2022-08-26T09:42:02.509Z,34.20
2022-08-26T09:44:30.614Z,33.90
2022-08-26T09:47:05.123Z,34.50
2022-08-26T09:49:38.346Z,34.10
2022-08-26T09:52:22.145Z,34.20
2022-08-26T09:55:03.703Z,33.90
2022-08-26T09:57:34.340Z,34.00
2022-08-26T10:00:02.418Z,34.50
2022-08-26T10:02:32.100Z,34.40
2022-08-26T10:05:09.275Z,34.00
2022-08-26T10:07:50.992Z,34.30
2022-08-26T10:10:32.093Z,34.10
2022-08-26T10:13:11.064Z,34.40
2022-08-26T10:16:16.155Z,34.60
2022-08-26T10:18:56.777Z,35.00
2022-08-26T10:21:42.693Z,34.80
2022-08-26T10:24:11.647Z,35.70
2022-08-26T10:27:06.058Z,35.20
2022-08-26T10:29:47.802Z,35.50
2022-08-26T10:32:29.325Z,35.20
2022-08-26T10:34:56.405Z,35.40
2022-08-26T10:37:27.702Z,35.50
2022-08-26T10:40:17.903Z,35.80
2022-08-26T10:43:14.473Z,35.90
2022-08-26T10:45:50.546Z,35.30
2022-08-26T10:48:39.885Z,36.30
2022-08-26T10:51:08.719Z,36.40
2022-08-26T10:53:42.588Z,36.20
2022-08-26T10:56:29.358Z,36.20
2022-08-26T10:59:12.435Z,35.40
2022-08-26T11:01:43.045Z,36.00
2022-08-26T11:04:20.412Z,36.20
2022-08-26T11:06:50.221Z,36.30
2022-08-26T11:09:46.771Z,36.40
2022-08-26T11:12:36.361Z,36.40
2022-08-26T11:15:10.334Z,36.20
2022-08-26T11:17:46.243Z,35.90
2022-08-26T11:20:41.781Z,36.70
2022-08-26T11:23:22.467Z,37.00
2022-08-26T11:26:01.049Z,36.30
2022-08-26T11:28:38.199Z,37.00
2022-08-26T11:31:10.175Z,37.10
2022-08-26T11:33:49.019Z,38.00
2022-08-26T11:36:41.694Z,38.70
2022-08-26T11:39:14.642Z,37.90
2022-08-26T11:41:47.619Z,37.70
2022-08-26T11:44:23.435Z,37.30
2022-08-26T11:47:00.790Z,37.20
2022-08-26T11:49:29.197Z,37.10
2022-08-26T11:52:22.123Z,37.10
2022-08-26T11:55:11.165Z,37.50
2022-08-26T11:57:46.538Z,37.70
2022-08-26T12:00:26.629Z,38.00
2022-08-26T12:02:55.729Z,38.40
2022-08-26T12:05:31.042Z,37.70
2022-08-26T12:08:07.327Z,37.80
2022-08-26T12:10:35.284Z,37.80
2022-08-26T12:13:04.430Z,37.80
2022-08-26T12:15:33.986Z,37.70
2022-08-26T12:18:29.629Z,37.00
2022-08-26T12:20:59.437Z,37.50
2022-08-26T12:23:36.474Z,37.80
2022-08-26T12:26:29.191Z,37.90
2022-08-26T12:28:57.458Z,37.40
2022-08-26T12:31:29.426Z,37.40
2022-08-26T12:33:59.736Z,37.60
2022-08-26T12:36:33.391Z,37.40
2022-08-26T12:39:30.524Z,37.10
2022-08-26T12:42:07.930Z,36.50
2022-08-26T12:44:58.731Z,36.60
2022-08-26T12:47:33.880Z,36.80
2022-08-26T12:50:18.916Z,37.40
2022-08-26T12:53:04.388Z,37.60
2022-08-26T12:55:51.295Z,37.80
2022-08-26T12:58:23.645Z,37.80
2022-08-26T13:00:55.413Z,37.80
2022-08-26T13:03:34.367Z,37.30
2022-08-26T13:06:15.966Z,37.10
2022-08-26T13:09:08.699Z,36.70
2022-08-26T13:11:55.615Z,36.50
2022-08-26T13:14:24.939Z,36.60
2022-08-26T13:16:53.394Z,36.80
2022-08-26T13:19:23.552Z,37.30
2022-08-26T13:21:56.456Z,37.20
2022-08-26T13:24:38.702Z,36.60
2022-08-26T13:27:07.742Z,36.80
2022-08-26T13:29:35.002Z,36.80
2022-08-26T13:32:03.749Z,37.70
2022-08-26T13:34:31.619Z,37.50
2022-08-26T13:36:59.343Z,37.80
2022-08-26T13:39:27.406Z,37.90
2022-08-26T13:41:54.954Z,37.70
2022-08-26T13:44:21.905Z,37.20
2022-08-26T13:46:49.232Z,38.00
2022-08-26T13:49:16.388Z,37.70
2022-08-26T13:51:43.372Z,37.60
2022-08-26T13:54:10.435Z,37.40
2022-08-26T13:56:37.644Z,37.00
2022-08-26T13:59:05.623Z,37.10
2022-08-26T14:01:34.804Z,37.00
2022-08-26T14:04:03.203Z,36.50
2022-08-26T14:06:30.459Z,36.90
2022-08-26T14:08:57.602Z,36.50
2022-08-26T14:11:25.172Z,36.10
2022-08-26T14:13:52.616Z,35.70
2022-08-26T14:16:29.225Z,34.90
2022-08-26T14:18:56.279Z,34.30
2022-08-26T14:21:25.176Z,34.50
2022-08-26T14:23:52.817Z,34.00
2022-08-26T14:26:28.088Z,33.80
2022-08-26T14:28:58.196Z,33.40
2022-08-26T14:31:27.164Z,32.70
2022-08-26T14:33:55.982Z,32.70
2022-08-26T14:36:29.151Z,32.70
2022-08-26T14:38:58.346Z,32.50
2022-08-26T14:41:25.566Z,32.10
2022-08-26T14:44:17.006Z,31.90
2022-08-26T14:46:47.397Z,31.60
2022-08-26T14:49:15.294Z,31.50
2022-08-26T14:51:42.671Z,31.20
2022-08-26T14:54:13.696Z,31.10
2022-08-26T14:56:47.362Z,31.00
2022-08-26T14:59:17.678Z,30.80
2022-08-26T15:01:45.603Z,30.90
2022-08-26T15:04:13.164Z,30.90
2022-08-26T15:06:40.907Z,31.00
2022-08-26T15:09:08.002Z,31.20
2022-08-26T15:11:35.041Z,31.20
2022-08-26T15:14:02.713Z,31.40
2022-08-26T15:16:30.213Z,31.70
2022-08-26T15:18:58.029Z,31.80
2022-08-26T15:21:26.440Z,31.90
2022-08-26T15:23:54.426Z,32.10
2022-08-26T15:26:23.207Z,32.30
2022-08-26T15:28:51.068Z,32.40
2022-08-26T15:31:20.227Z,32.50
2022-08-26T15:33:47.580Z,32.50
2022-08-26T15:36:15.248Z,32.60
2022-08-26T15:38:42.739Z,32.60
2022-08-26T15:41:10.500Z,32.70
2022-08-26T15:43:38.156Z,32.50
2022-08-26T15:46:10.500Z,32.50
2022-08-26T15:48:38.063Z,32.50
2022-08-26T15:51:06.217Z,32.40
2022-08-26T15:53:35.117Z,32.10
2022-08-26T15:56:02.636Z,31.90
2022-08-26T15:58:30.291Z,32.00
2022-08-26T16:00:57.726Z,31.60
2022-08-26T16:03:25.017Z,31.80
2022-08-26T16:05:52.104Z,31.80
2022-08-26T16:08:19.282Z,31.80
2022-08-26T16:10:50.564Z,31.70
2022-08-26T16:13:19.934Z,31.60
2022-08-26T16:15:48.399Z,31.60
2022-08-26T16:18:16.273Z,31.50
2022-08-26T16:20:55.279Z,31.30
2022-08-26T16:23:39.499Z,31.10
2022-08-26T16:26:11.630Z,31.10
2022-08-26T16:28:39.190Z,30.90
2022-08-26T16:31:07.393Z,30.80
2022-08-26T16:33:34.399Z,30.70
2022-08-26T16:36:01.657Z,30.60
2022-08-26T16:38:28.612Z,30.40
2022-08-26T16:40:55.881Z,30.30
2022-08-26T16:43:22.889Z,30.20
2022-08-26T16:45:49.898Z,30.20
2022-08-26T16:48:17.097Z,30.00
2022-08-26T16:50:44.064Z,29.80
2022-08-26T16:55:47.537Z,29.40
2022-08-26T16:58:15.306Z,29.30
2022-08-26T17:00:46.036Z,29.30
2022-08-26T17:03:13.489Z,29.30
2022-08-26T17:05:40.671Z,29.20
2022-08-26T17:08:07.989Z,29.10
2022-08-26T17:10:35.350Z,29.00
2022-08-26T17:13:02.657Z,28.90
2022-08-26T17:15:30.025Z,28.80
2022-08-26T17:17:57.428Z,28.80
2022-08-26T17:20:25.654Z,28.60
2022-08-26T17:22:54.745Z,28.50
2022-08-26T17:25:28.266Z,28.50
2022-08-26T17:30:27.283Z,28.30
2022-08-26T17:32:57.119Z,28.10
2022-08-26T17:35:24.856Z,28.10
2022-08-26T17:37:52.031Z,28.00
2022-08-26T17:40:22.196Z,27.90
2022-08-26T17:42:49.690Z,27.90
2022-08-26T17:45:17.937Z,27.70
2022-08-26T17:47:44.924Z,27.70
2022-08-26T17:50:14.641Z,27.70
2022-08-26T17:52:41.704Z,27.70
2022-08-26T17:55:11.237Z,27.70
2022-08-26T17:57:40.664Z,27.50
2022-08-26T18:00:13.500Z,27.50
2022-08-26T18:02:40.818Z,27.50
2022-08-26T18:05:09.218Z,27.40
2022-08-26T18:07:43.974Z,27.30
2022-08-26T18:10:13.534Z,27.20
2022-08-26T18:12:41.746Z,27.10
2022-08-26T18:15:10.644Z,27.00
2022-08-26T18:17:39.301Z,26.90
2022-08-26T18:20:09.562Z,26.90
2022-08-26T18:22:36.474Z,26.60
2022-08-26T18:25:05.161Z,26.60
2022-08-26T18:27:32.172Z,26.50
2022-08-26T18:29:59.109Z,26.50
2022-08-26T18:32:25.967Z,26.50
2022-08-26T18:34:53.304Z,26.50
2022-08-26T18:37:20.241Z,26.50
2022-08-26T18:39:47.139Z,26.40
2022-08-26T18:42:14.331Z,26.50
2022-08-26T18:44:41.211Z,26.20
2022-08-26T18:47:08.182Z,26.10
2022-08-26T18:49:35.226Z,26.00
2022-08-26T18:52:02.203Z,26.00
2022-08-26T18:54:30.022Z,25.70
2022-08-26T18:56:57.269Z,25.60
2022-08-26T18:59:30.257Z,25.70
2022-08-26T19:01:57.846Z,25.80
2022-08-26T19:04:25.148Z,25.90
2022-08-26T19:06:52.863Z,25.70
2022-08-26T19:09:20.252Z,25.70
2022-08-26T19:11:49.637Z,25.70
2022-08-26T19:14:17.276Z,25.50
2022-08-26T19:16:46.155Z,25.30
2022-08-26T19:19:14.829Z,25.40
2022-08-26T19:21:41.787Z,25.30
2022-08-26T19:24:15.453Z,25.20
2022-08-26T19:26:43.838Z,25.20
2022-08-26T19:29:11.589Z,25.40
2022-08-26T19:31:38.589Z,25.40
2022-08-26T19:34:05.848Z,25.50
2022-08-26T19:36:33.121Z,25.50
2022-08-26T19:39:03.216Z,25.50
2022-08-26T19:41:36.851Z,26.50
2022-08-26T19:44:09.321Z,25.60
2022-08-26T19:49:08.974Z,25.50
2022-08-26T19:51:36.665Z,25.40
2022-08-26T19:54:04.427Z,25.30
2022-08-26T19:56:31.910Z,25.30
2022-08-26T19:58:58.885Z,25.20
2022-08-26T20:01:25.889Z,25.00
2022-08-26T20:03:53.139Z,24.80
2022-08-26T20:06:20.408Z,24.80
2022-08-26T20:08:47.406Z,24.70
2022-08-26T20:11:19.001Z,24.60
2022-08-26T20:13:47.008Z,24.60
2022-08-26T20:16:14.958Z,24.70
2022-08-26T20:19:02.051Z,24.70
2022-08-26T20:21:33.225Z,24.70
2022-08-26T20:24:09.813Z,24.60
2022-08-26T20:26:38.764Z,24.50
2022-08-26T20:29:07.513Z,24.40
2022-08-26T20:31:35.472Z,24.50
2022-08-26T20:34:02.983Z,24.60
2022-08-26T20:36:30.391Z,24.60
2022-08-26T20:38:58.726Z,24.60
2022-08-26T20:41:26.194Z,24.60
2022-08-26T20:43:54.012Z,24.30
2022-08-26T20:46:24.460Z,24.20
2022-08-26T20:48:52.768Z,24.20
2022-08-26T20:51:20.395Z,24.20
2022-08-26T20:53:47.649Z,24.20
2022-08-26T20:56:16.623Z,24.30
2022-08-26T20:58:43.623Z,24.30
2022-08-26T21:01:18.791Z,24.00
2022-08-26T21:03:46.465Z,23.90
2022-08-26T21:06:13.636Z,23.90
2022-08-26T21:08:43.173Z,23.80
2022-08-26T21:11:10.472Z,23.60
2022-08-26T21:13:54.469Z,23.60
2022-08-26T21:16:26.034Z,23.60
2022-08-26T21:18:53.332Z,23.50
2022-08-26T21:21:25.034Z,23.40
2022-08-26T21:23:52.714Z,23.40
2022-08-26T21:26:19.873Z,23.30
2022-08-26T21:28:47.567Z,23.30
2022-08-26T21:31:17.583Z,23.30
2022-08-26T21:33:44.576Z,23.30
2022-08-26T21:36:13.681Z,23.20
2022-08-26T21:38:41.469Z,23.20
2022-08-26T21:41:19.563Z,23.10
2022-08-26T21:43:48.115Z,23.10
2022-08-26T21:46:18.507Z,23.00
2022-08-26T21:48:50.676Z,23.00
2022-08-26T21:51:20.178Z,23.00
2022-08-26T21:53:47.863Z,23.10
2022-08-26T21:56:17.004Z,23.00
2022-08-26T21:58:44.027Z,22.90
2022-08-26T22:01:17.265Z,22.90
2022-08-26T22:03:47.679Z,22.80
2022-08-26T22:06:19.220Z,22.90
2022-08-26T22:08:46.382Z,23.00
2022-08-26T22:11:14.467Z,22.90
2022-08-26T22:13:43.057Z,22.90
2022-08-26T22:16:11.444Z,22.80
2022-08-26T22:18:39.413Z,22.70
2022-08-26T22:21:09.211Z,22.60
2022-08-26T22:23:37.586Z,22.50
2022-08-26T22:26:06.959Z,22.60
2022-08-26T22:28:34.658Z,22.50
2022-08-26T22:31:02.023Z,22.60
2022-08-26T22:33:29.354Z,22.60
2022-08-26T22:35:56.406Z,22.60
2022-08-26T22:38:24.073Z,22.60
2022-08-26T22:40:57.016Z,22.60
2022-08-26T22:43:25.225Z,22.50
2022-08-26T22:45:53.501Z,22.10
2022-08-26T22:48:24.182Z,22.50
2022-08-26T22:50:55.244Z,22.40
2022-08-26T22:53:24.057Z,22.40
2022-08-26T22:55:51.014Z,22.30
2022-08-26T22:58:19.322Z,22.30
2022-08-26T23:00:48.087Z,22.40
2022-08-26T23:03:17.135Z,22.40
2022-08-26T23:05:45.236Z,22.30
2022-08-26T23:08:14.334Z,22.30
2022-08-26T23:10:43.127Z,22.20
2022-08-26T23:13:10.682Z,22.20
2022-08-26T23:15:38.590Z,22.30
2022-08-26T23:18:05.726Z,22.50
2022-08-26T23:20:33.445Z,22.30
2022-08-26T23:23:01.513Z,22.20
2022-08-26T23:25:29.892Z,22.30
2022-08-26T23:27:57.524Z,22.30
2022-08-26T23:30:27.280Z,22.30
2022-08-26T23:32:54.858Z,22.10
2022-08-26T23:35:22.298Z,22.10
2022-08-26T23:37:52.621Z,22.00
2022-08-26T23:40:32.388Z,22.10
2022-08-26T23:43:01.164Z,22.10
2022-08-26T23:45:28.269Z,22.00
2022-08-26T23:47:55.522Z,22.50
2022-08-26T23:50:48.887Z,21.80
2022-08-26T23:53:20.079Z,21.60
2022-08-26T23:55:49.600Z,21.80
2022-08-26T23:58:18.318Z,21.80
